createdAt,value
2023-06-04T00:00:46.221Z,8.3
2023-06-04T00:15:44.298Z,9.6
2023-06-04T00:30:44.818Z,10
2023-06-04T00:45:44.757Z,10.4
2023-06-04T01:00:49.818Z,11
2023-06-04T01:15:48.900Z,10.5
2023-06-04T01:30:49.253Z,10.2
2023-06-04T01:45:50.579Z,10.5
2023-06-04T02:00:51.546Z,10.3
2023-06-04T02:15:49.862Z,9.5
2023-06-04T02:30:52.095Z,10.2
2023-06-04T02:45:51.007Z,8.6
2023-06-04T03:00:52.550Z,8.3
2023-06-04T03:12:21.564Z,8.4
2023-06-04T03:27:23.064Z,8.6
2023-06-04T03:42:22.348Z,9.7
2023-06-04T03:57:23.244Z,11.1
2023-06-04T04:12:24.455Z,11.4
2023-06-04T04:27:24.577Z,10.7
2023-06-04T04:42:25.176Z,11.4
2023-06-04T04:57:27.204Z,11.2
2023-06-04T05:12:27.176Z,10.2
2023-06-04T05:27:27.284Z,10
2023-06-04T05:42:28.502Z,9.1
2023-06-04T05:57:29.585Z,8.6
2023-06-04T06:12:29.311Z,8.4
2023-06-04T06:27:30.925Z,7.9
2023-06-04T06:42:30.877Z,8.2
2023-06-04T06:57:31.826Z,7.9
2023-06-04T07:12:32.231Z,7.4
2023-06-04T07:27:33.423Z,6.9
2023-06-04T07:42:33.557Z,6.2
2023-06-04T07:57:39.298Z,5.3
2023-06-04T08:12:34.767Z,5.6
2023-06-04T08:27:36.770Z,5.4
2023-06-04T08:42:36.592Z,5.4
2023-06-04T08:57:36.929Z,5.5
2023-06-04T09:12:39.422Z,5.8
2023-06-04T09:27:40.134Z,5.4
2023-06-04T09:42:38.994Z,5.1
2023-06-04T09:57:39.187Z,5.4
2023-06-04T10:12:41.206Z,5.4
2023-06-04T10:27:42.190Z,5.8
2023-06-04T10:42:41.763Z,5.5
2023-06-04T10:57:42.600Z,5.2
2023-06-04T11:12:42.864Z,5
2023-06-04T11:27:43.965Z,5.7
2023-06-04T11:42:44.104Z,4.6
2023-06-04T11:57:44.574Z,5.3
2023-06-04T12:12:45.413Z,5.6
2023-06-04T12:27:46.334Z,5.5
2023-06-04T12:42:46.727Z,5.2
2023-06-04T12:57:50.242Z,5.3
2023-06-04T13:12:48.444Z,5.1
2023-06-04T13:27:48.777Z,5.5
2023-06-04T13:42:49.690Z,5.4
2023-06-04T13:57:50.037Z,4.9
2023-06-04T14:12:57.208Z,6.3
2023-06-04T14:27:51.963Z,5.8
2023-06-04T14:42:59.941Z,5.4
2023-06-04T14:57:52.738Z,5.2
2023-06-04T15:12:53.860Z,5.4
2023-06-04T15:27:56.889Z,5.5
2023-06-04T15:42:57.642Z,5.1
2023-06-04T15:57:55.303Z,5.1
2023-06-04T16:12:57.505Z,4.9
2023-06-04T16:27:56.676Z,5.3
2023-06-04T16:42:57.754Z,5.2
2023-06-04T16:57:57.585Z,5.3
2023-06-04T17:13:01.667Z,4.9
2023-06-04T17:27:59.915Z,4.6
2023-06-04T17:42:59.725Z,5.2
2023-06-04T17:58:01.148Z,5
2023-06-04T18:13:00.132Z,4.8
2023-06-04T18:28:01.975Z,5.1
2023-06-04T18:43:03.461Z,4.5
2023-06-04T18:58:03.573Z,4.9
2023-06-04T19:13:05.993Z,4.8
2023-06-04T19:28:03.766Z,5
2023-06-04T19:43:04.367Z,4.6
2023-06-04T19:58:07.245Z,4.7
2023-06-04T20:13:05.534Z,4.6
2023-06-04T20:28:10.171Z,4.7
2023-06-04T20:43:08.360Z,4.5
2023-06-04T20:58:07.401Z,4.3
2023-06-04T21:13:08.219Z,4.2
2023-06-04T21:28:07.799Z,4.8
2023-06-04T21:43:10.090Z,5.6
2023-06-04T21:58:08.985Z,5.4
2023-06-04T22:00:36.883Z,5.3
2023-06-04T22:15:37.304Z,5.8
2023-06-04T22:30:39.271Z,5.6
2023-06-04T22:45:38.304Z,4.3
2023-06-04T23:00:38.818Z,5.1
2023-06-04T23:15:39.482Z,5.3
2023-06-04T23:30:40.555Z,5.4
2023-06-04T23:45:42.171Z,5.6
